sensor_id;sensor_type;location;lat;lon;timestamp;P1;durP1;ratioP1;P2;durP2;ratioP2
12210;SDS011;6168;42.658;23.298;2022-09-09T00:00:53;8.40;;;7.68;;
12210;SDS011;6168;42.658;23.298;2022-09-09T00:03:27;9.93;;;8.50;;
12210;SDS011;6168;42.658;23.298;2022-09-09T00:05:59;9.60;;;8.70;;
12210;SDS011;6168;42.658;23.298;2022-09-09T00:08:38;9.80;;;8.90;;
12210;SDS011;6168;42.658;23.298;2022-09-09T00:11:18;9.38;;;7.90;;
12210;SDS011;6168;42.658;23.298;2022-09-09T00:13:52;8.57;;;7.47;;
12210;SDS011;6168;42.658;23.298;2022-09-09T00:16:22;9.85;;;8.88;;
12210;SDS011;6168;42.658;23.298;2022-09-09T00:18:54;8.30;;;7.55;;
12210;SDS011;6168;42.658;23.298;2022-09-09T00:21:30;10.07;;;9.07;;
12210;SDS011;6168;42.658;23.298;2022-09-09T00:24:04;9.77;;;8.82;;
12210;SDS011;6168;42.658;23.298;2022-09-09T00:26:40;10.40;;;9.35;;
12210;SDS011;6168;42.658;23.298;2022-09-09T00:29:13;9.65;;;8.85;;
12210;SDS011;6168;42.658;23.298;2022-09-09T00:31:49;10.52;;;9.32;;
12210;SDS011;6168;42.658;23.298;2022-09-09T00:34:21;10.02;;;9.02;;
12210;SDS011;6168;42.658;23.298;2022-09-09T00:36:52;13.52;;;9.30;;
12210;SDS011;6168;42.658;23.298;2022-09-09T00:39:24;9.88;;;8.85;;
12210;SDS011;6168;42.658;23.298;2022-09-09T00:41:57;9.15;;;8.35;;
12210;SDS011;6168;42.658;23.298;2022-09-09T00:44:34;9.80;;;8.48;;
12210;SDS011;6168;42.658;23.298;2022-09-09T00:47:17;10.43;;;9.55;;
12210;SDS011;6168;42.658;23.298;2022-09-09T00:49:59;9.40;;;8.68;;
12210;SDS011;6168;42.658;23.298;2022-09-09T00:52:36;9.60;;;8.70;;
12210;SDS011;6168;42.658;23.298;2022-09-09T00:55:15;9.50;;;8.65;;
12210;SDS011;6168;42.658;23.298;2022-09-09T00:57:46;9.35;;;8.55;;
12210;SDS011;6168;42.658;23.298;2022-09-09T01:00:21;8.88;;;8.13;;
12210;SDS011;6168;42.658;23.298;2022-09-09T01:02:53;9.05;;;8.18;;
12210;SDS011;6168;42.658;23.298;2022-09-09T01:05:34;13.35;;;8.50;;
12210;SDS011;6168;42.658;23.298;2022-09-09T01:08:10;9.00;;;8.30;;
12210;SDS011;6168;42.658;23.298;2022-09-09T01:10:49;8.57;;;7.88;;
12210;SDS011;6168;42.658;23.298;2022-09-09T01:13:20;7.40;;;6.75;;
12210;SDS011;6168;42.658;23.298;2022-09-09T01:15:51;9.27;;;8.35;;
12210;SDS011;6168;42.658;23.298;2022-09-09T01:18:20;9.07;;;8.18;;
12210;SDS011;6168;42.658;23.298;2022-09-09T01:20:53;9.13;;;8.52;;
12210;SDS011;6168;42.658;23.298;2022-09-09T01:23:36;10.18;;;9.27;;
12210;SDS011;6168;42.658;23.298;2022-09-09T01:26:26;8.45;;;7.70;;
12210;SDS011;6168;42.658;23.298;2022-09-09T01:28:56;11.93;;;8.90;;
12210;SDS011;6168;42.658;23.298;2022-09-09T01:31:26;9.63;;;8.27;;
12210;SDS011;6168;42.658;23.298;2022-09-09T01:33:56;9.60;;;8.80;;
12210;SDS011;6168;42.658;23.298;2022-09-09T01:36:29;9.40;;;8.50;;
12210;SDS011;6168;42.658;23.298;2022-09-09T01:39:01;10.05;;;9.07;;
12210;SDS011;6168;42.658;23.298;2022-09-09T01:41:30;10.15;;;9.25;;
12210;SDS011;6168;42.658;23.298;2022-09-09T01:43:57;9.50;;;8.70;;
12210;SDS011;6168;42.658;23.298;2022-09-09T01:46:24;12.27;;;8.88;;
12210;SDS011;6168;42.658;23.298;2022-09-09T01:48:51;10.60;;;9.60;;
12210;SDS011;6168;42.658;23.298;2022-09-09T01:51:19;11.93;;;9.60;;
12210;SDS011;6168;42.658;23.298;2022-09-09T01:53:46;11.02;;;9.15;;
12210;SDS011;6168;42.658;23.298;2022-09-09T01:56:17;9.55;;;8.65;;
12210;SDS011;6168;42.658;23.298;2022-09-09T01:59:03;9.55;;;8.65;;
12210;SDS011;6168;42.658;23.298;2022-09-09T02:01:46;10.02;;;9.10;;
12210;SDS011;6168;42.658;23.298;2022-09-09T02:04:27;9.90;;;8.93;;
12210;SDS011;6168;42.658;23.298;2022-09-09T02:07:03;10.15;;;9.18;;
12210;SDS011;6168;42.658;23.298;2022-09-09T02:09:36;9.40;;;8.55;;
12210;SDS011;6168;42.658;23.298;2022-09-09T02:12:06;10.48;;;8.95;;
12210;SDS011;6168;42.658;23.298;2022-09-09T02:14:39;10.77;;;9.50;;
12210;SDS011;6168;42.658;23.298;2022-09-09T02:17:13;11.68;;;10.13;;
12210;SDS011;6168;42.658;23.298;2022-09-09T02:19:45;10.95;;;9.95;;
12210;SDS011;6168;42.658;23.298;2022-09-09T02:22:18;11.23;;;10.10;;
12210;SDS011;6168;42.658;23.298;2022-09-09T02:24:48;10.88;;;9.98;;
12210;SDS011;6168;42.658;23.298;2022-09-09T02:27:18;11.15;;;10.05;;
12210;SDS011;6168;42.658;23.298;2022-09-09T02:29:48;13.38;;;12.07;;
12210;SDS011;6168;42.658;23.298;2022-09-09T02:32:17;14.65;;;10.95;;
12210;SDS011;6168;42.658;23.298;2022-09-09T02:34:47;13.68;;;12.05;;
12210;SDS011;6168;42.658;23.298;2022-09-09T02:37:17;17.50;;;10.63;;
12210;SDS011;6168;42.658;23.298;2022-09-09T02:39:46;14.82;;;11.27;;
12210;SDS011;6168;42.658;23.298;2022-09-09T02:42:13;16.10;;;11.50;;
12210;SDS011;6168;42.658;23.298;2022-09-09T02:44:41;12.18;;;11.00;;
12210;SDS011;6168;42.658;23.298;2022-09-09T02:47:16;13.82;;;10.38;;
12210;SDS011;6168;42.658;23.298;2022-09-09T02:49:58;10.75;;;9.48;;
12210;SDS011;6168;42.658;23.298;2022-09-09T02:52:32;13.55;;;11.38;;
12210;SDS011;6168;42.658;23.298;2022-09-09T02:55:10;11.20;;;10.25;;
12210;SDS011;6168;42.658;23.298;2022-09-09T02:57:44;12.25;;;10.13;;
12210;SDS011;6168;42.658;23.298;2022-09-09T03:00:13;11.73;;;10.30;;
12210;SDS011;6168;42.658;23.298;2022-09-09T03:02:42;10.90;;;9.75;;
12210;SDS011;6168;42.658;23.298;2022-09-09T03:05:10;11.00;;;9.48;;
12210;SDS011;6168;42.658;23.298;2022-09-09T03:07:38;11.07;;;10.10;;
12210;SDS011;6168;42.658;23.298;2022-09-09T03:10:05;11.82;;;10.63;;
12210;SDS011;6168;42.658;23.298;2022-09-09T03:12:33;12.13;;;10.45;;
12210;SDS011;6168;42.658;23.298;2022-09-09T03:15:00;13.88;;;10.35;;
12210;SDS011;6168;42.658;23.298;2022-09-09T03:17:26;11.32;;;10.27;;
12210;SDS011;6168;42.658;23.298;2022-09-09T03:19:55;12.35;;;10.07;;
12210;SDS011;6168;42.658;23.298;2022-09-09T03:22:24;12.95;;;11.20;;
12210;SDS011;6168;42.658;23.298;2022-09-09T03:25:08;12.13;;;11.00;;
12210;SDS011;6168;42.658;23.298;2022-09-09T03:27:35;11.23;;;10.25;;
12210;SDS011;6168;42.658;23.298;2022-09-09T03:30:02;12.35;;;11.25;;
12210;SDS011;6168;42.658;23.298;2022-09-09T03:32:30;12.07;;;10.88;;
12210;SDS011;6168;42.658;23.298;2022-09-09T03:34:58;12.32;;;10.57;;
12210;SDS011;6168;42.658;23.298;2022-09-09T03:37:25;12.27;;;10.70;;
12210;SDS011;6168;42.658;23.298;2022-09-09T03:39:52;11.75;;;10.55;;
12210;SDS011;6168;42.658;23.298;2022-09-09T03:42:19;12.45;;;11.23;;
12210;SDS011;6168;42.658;23.298;2022-09-09T03:44:47;12.23;;;11.02;;
12210;SDS011;6168;42.658;23.298;2022-09-09T03:47:15;11.93;;;10.25;;
12210;SDS011;6168;42.658;23.298;2022-09-09T03:49:44;12.07;;;10.85;;
12210;SDS011;6168;42.658;23.298;2022-09-09T03:52:13;13.90;;;10.70;;
12210;SDS011;6168;42.658;23.298;2022-09-09T03:54:41;11.43;;;10.43;;
12210;SDS011;6168;42.658;23.298;2022-09-09T03:57:08;12.77;;;10.73;;
12210;SDS011;6168;42.658;23.298;2022-09-09T03:59:36;10.48;;;9.68;;
12210;SDS011;6168;42.658;23.298;2022-09-09T04:02:03;11.40;;;10.30;;
12210;SDS011;6168;42.658;23.298;2022-09-09T04:04:30;13.75;;;12.27;;
12210;SDS011;6168;42.658;23.298;2022-09-09T04:06:57;13.30;;;11.05;;
12210;SDS011;6168;42.658;23.298;2022-09-09T04:09:25;12.00;;;11.00;;
12210;SDS011;6168;42.658;23.298;2022-09-09T04:11:52;13.13;;;11.13;;
12210;SDS011;6168;42.658;23.298;2022-09-09T04:14:20;10.73;;;9.90;;
12210;SDS011;6168;42.658;23.298;2022-09-09T04:16:47;11.95;;;10.75;;
12210;SDS011;6168;42.658;23.298;2022-09-09T04:19:14;12.38;;;11.27;;
12210;SDS011;6168;42.658;23.298;2022-09-09T04:21:41;11.90;;;10.73;;
12210;SDS011;6168;42.658;23.298;2022-09-09T04:24:08;12.70;;;10.95;;
12210;SDS011;6168;42.658;23.298;2022-09-09T04:26:36;12.18;;;10.90;;
12210;SDS011;6168;42.658;23.298;2022-09-09T04:29:04;12.30;;;11.32;;
12210;SDS011;6168;42.658;23.298;2022-09-09T04:31:32;13.25;;;10.55;;
12210;SDS011;6168;42.658;23.298;2022-09-09T04:34:00;13.45;;;11.95;;
12210;SDS011;6168;42.658;23.298;2022-09-09T04:36:30;11.82;;;10.63;;
12210;SDS011;6168;42.658;23.298;2022-09-09T04:38:58;14.05;;;11.35;;
12210;SDS011;6168;42.658;23.298;2022-09-09T04:41:25;11.82;;;10.65;;
12210;SDS011;6168;42.658;23.298;2022-09-09T04:43:53;14.65;;;11.75;;
12210;SDS011;6168;42.658;23.298;2022-09-09T04:46:20;14.98;;;11.13;;
12210;SDS011;6168;42.658;23.298;2022-09-09T04:48:48;15.77;;;11.73;;
12210;SDS011;6168;42.658;23.298;2022-09-09T04:51:14;17.20;;;10.38;;
12210;SDS011;6168;42.658;23.298;2022-09-09T04:53:42;13.13;;;11.82;;
12210;SDS011;6168;42.658;23.298;2022-09-09T04:56:09;12.40;;;11.13;;
12210;SDS011;6168;42.658;23.298;2022-09-09T04:58:37;13.23;;;11.93;;
12210;SDS011;6168;42.658;23.298;2022-09-09T05:01:08;12.88;;;11.63;;
12210;SDS011;6168;42.658;23.298;2022-09-09T05:03:37;13.57;;;12.23;;
12210;SDS011;6168;42.658;23.298;2022-09-09T05:06:05;19.25;;;12.45;;
12210;SDS011;6168;42.658;23.298;2022-09-09T05:08:33;13.43;;;12.02;;
12210;SDS011;6168;42.658;23.298;2022-09-09T05:11:00;15.02;;;12.68;;
12210;SDS011;6168;42.658;23.298;2022-09-09T05:13:28;16.33;;;11.73;;
12210;SDS011;6168;42.658;23.298;2022-09-09T05:15:57;16.08;;;13.20;;
12210;SDS011;6168;42.658;23.298;2022-09-09T05:18:25;29.73;;;25.98;;
12210;SDS011;6168;42.658;23.298;2022-09-09T05:20:52;19.02;;;17.17;;
12210;SDS011;6168;42.658;23.298;2022-09-09T05:23:24;28.33;;;25.63;;
12210;SDS011;6168;42.658;23.298;2022-09-09T05:25:57;23.40;;;21.27;;
12210;SDS011;6168;42.658;23.298;2022-09-09T05:28:24;22.40;;;20.30;;
12210;SDS011;6168;42.658;23.298;2022-09-09T05:30:55;20.40;;;18.30;;
12210;SDS011;6168;42.658;23.298;2022-09-09T05:33:23;22.40;;;20.25;;
12210;SDS011;6168;42.658;23.298;2022-09-09T05:35:55;16.15;;;14.57;;
12210;SDS011;6168;42.658;23.298;2022-09-09T05:38:24;18.00;;;13.82;;
12210;SDS011;6168;42.658;23.298;2022-09-09T05:40:51;14.48;;;13.15;;
12210;SDS011;6168;42.658;23.298;2022-09-09T05:43:18;14.02;;;12.65;;
12210;SDS011;6168;42.658;23.298;2022-09-09T05:45:46;16.27;;;12.45;;
12210;SDS011;6168;42.658;23.298;2022-09-09T05:48:13;17.45;;;12.80;;
12210;SDS011;6168;42.658;23.298;2022-09-09T05:50:42;16.75;;;12.23;;
12210;SDS011;6168;42.658;23.298;2022-09-09T05:53:10;17.10;;;12.45;;
12210;SDS011;6168;42.658;23.298;2022-09-09T05:55:37;16.80;;;12.10;;
12210;SDS011;6168;42.658;23.298;2022-09-09T05:58:03;12.27;;;11.27;;
12210;SDS011;6168;42.658;23.298;2022-09-09T06:00:31;17.25;;;12.15;;
12210;SDS011;6168;42.658;23.298;2022-09-09T06:02:57;12.55;;;10.98;;
12210;SDS011;6168;42.658;23.298;2022-09-09T06:05:25;16.35;;;11.38;;
12210;SDS011;6168;42.658;23.298;2022-09-09T06:07:55;10.90;;;9.90;;
12210;SDS011;6168;42.658;23.298;2022-09-09T06:10:22;13.52;;;9.35;;
12210;SDS011;6168;42.658;23.298;2022-09-09T06:12:51;10.35;;;9.35;;
12210;SDS011;6168;42.658;23.298;2022-09-09T06:15:19;9.88;;;8.88;;
12210;SDS011;6168;42.658;23.298;2022-09-09T06:17:45;14.25;;;8.93;;
12210;SDS011;6168;42.658;23.298;2022-09-09T07:48:37;6.60;;;6.00;;
12210;SDS011;6168;42.658;23.298;2022-09-09T07:51:07;6.68;;;6.05;;
12210;SDS011;6168;42.658;23.298;2022-09-09T07:53:35;10.38;;;6.30;;
12210;SDS011;6168;42.658;23.298;2022-09-09T07:56:04;7.85;;;5.75;;
12210;SDS011;6168;42.658;23.298;2022-09-09T07:58:32;7.80;;;5.97;;
12210;SDS011;6168;42.658;23.298;2022-09-09T08:00:59;7.50;;;5.72;;
12210;SDS011;6168;42.658;23.298;2022-09-09T08:03:26;8.93;;;5.32;;
12210;SDS011;6168;42.658;23.298;2022-09-09T08:05:53;8.60;;;5.35;;
12210;SDS011;6168;42.658;23.298;2022-09-09T08:08:28;5.63;;;5.15;;
12210;SDS011;6168;42.658;23.298;2022-09-09T08:11:00;7.13;;;5.53;;
12210;SDS011;6168;42.658;23.298;2022-09-09T08:13:29;7.18;;;5.07;;
12210;SDS011;6168;42.658;23.298;2022-09-09T08:16:03;5.82;;;5.10;;
12210;SDS011;6168;42.658;23.298;2022-09-09T08:18:31;6.88;;;5.00;;
12210;SDS011;6168;42.658;23.298;2022-09-09T08:21:04;6.30;;;5.10;;
12210;SDS011;6168;42.658;23.298;2022-09-09T08:23:33;7.25;;;5.10;;
12210;SDS011;6168;42.658;23.298;2022-09-09T08:26:04;8.63;;;4.43;;
12210;SDS011;6168;42.658;23.298;2022-09-09T08:38:25;5.72;;;4.47;;
12210;SDS011;6168;42.658;23.298;2022-09-09T08:40:53;6.50;;;5.15;;
12210;SDS011;6168;42.658;23.298;2022-09-09T08:43:26;8.88;;;5.30;;
12210;SDS011;6168;42.658;23.298;2022-09-09T08:45:55;5.03;;;4.00;;
12210;SDS011;6168;42.658;23.298;2022-09-09T08:48:34;4.78;;;3.72;;
12210;SDS011;6168;42.658;23.298;2022-09-09T08:51:10;12.38;;;6.07;;
12210;SDS011;6168;42.658;23.298;2022-09-09T08:53:39;27.30;;;11.50;;
12210;SDS011;6168;42.658;23.298;2022-09-09T08:56:12;5.50;;;4.30;;
12210;SDS011;6168;42.658;23.298;2022-09-09T08:58:43;5.40;;;4.05;;
12210;SDS011;6168;42.658;23.298;2022-09-09T09:04:34;7.40;;;4.13;;
12210;SDS011;6168;42.658;23.298;2022-09-09T09:07:13;9.52;;;4.47;;
12210;SDS011;6168;42.658;23.298;2022-09-09T09:09:49;4.60;;;3.97;;
12210;SDS011;6168;42.658;23.298;2022-09-09T09:12:26;6.60;;;5.35;;
12210;SDS011;6168;42.658;23.298;2022-09-09T09:14:56;45.42;;;40.58;;
12210;SDS011;6168;42.658;23.298;2022-09-09T09:17:24;6.60;;;4.28;;
12210;SDS011;6168;42.658;23.298;2022-09-09T09:19:56;12.05;;;4.07;;
12210;SDS011;6168;42.658;23.298;2022-09-09T09:22:26;3.72;;;3.17;;
12210;SDS011;6168;42.658;23.298;2022-09-09T09:25:00;6.50;;;3.50;;
12210;SDS011;6168;42.658;23.298;2022-09-09T09:27:39;4.88;;;3.83;;
12210;SDS011;6168;42.658;23.298;2022-09-09T09:30:13;6.13;;;3.97;;
12210;SDS011;6168;42.658;23.298;2022-09-09T09:32:43;4.15;;;3.00;;
12210;SDS011;6168;42.658;23.298;2022-09-09T09:35:19;4.57;;;3.10;;
12210;SDS011;6168;42.658;23.298;2022-09-09T09:37:46;3.30;;;3.03;;
12210;SDS011;6168;42.658;23.298;2022-09-09T09:40:14;6.03;;;2.90;;
12210;SDS011;6168;42.658;23.298;2022-09-09T09:42:51;3.85;;;3.45;;
12210;SDS011;6168;42.658;23.298;2022-09-09T09:45:26;3.67;;;3.45;;
12210;SDS011;6168;42.658;23.298;2022-09-09T09:48:00;3.17;;;3.00;;
12210;SDS011;6168;42.658;23.298;2022-09-09T09:50:29;3.30;;;3.05;;
12210;SDS011;6168;42.658;23.298;2022-09-09T09:52:57;3.35;;;2.95;;
12210;SDS011;6168;42.658;23.298;2022-09-09T09:55:26;4.72;;;3.53;;
12210;SDS011;6168;42.658;23.298;2022-09-09T09:58:02;8.20;;;3.20;;
12210;SDS011;6168;42.658;23.298;2022-09-09T10:00:30;3.17;;;3.00;;
12210;SDS011;6168;42.658;23.298;2022-09-09T10:02:59;8.43;;;2.95;;
12210;SDS011;6168;42.658;23.298;2022-09-09T10:05:27;5.38;;;3.10;;
12210;SDS011;6168;42.658;23.298;2022-09-09T10:08:03;4.82;;;3.20;;
12210;SDS011;6168;42.658;23.298;2022-09-09T10:10:36;9.38;;;3.20;;
12210;SDS011;6168;42.658;23.298;2022-09-09T10:13:18;5.32;;;2.95;;
12210;SDS011;6168;42.658;23.298;2022-09-09T10:15:53;4.05;;;3.78;;
12210;SDS011;6168;42.658;23.298;2022-09-09T10:18:38;5.85;;;3.40;;
12210;SDS011;6168;42.658;23.298;2022-09-09T11:20:01;7.78;;;5.03;;
12210;SDS011;6168;42.658;23.298;2022-09-09T11:22:32;10.55;;;5.35;;
12210;SDS011;6168;42.658;23.298;2022-09-09T11:25:03;5.75;;;4.68;;
12210;SDS011;6168;42.658;23.298;2022-09-09T11:27:38;7.38;;;4.90;;
12210;SDS011;6168;42.658;23.298;2022-09-09T11:30:16;9.20;;;5.10;;
12210;SDS011;6168;42.658;23.298;2022-09-09T11:35:58;6.88;;;4.90;;
12210;SDS011;6168;42.658;23.298;2022-09-09T11:38:38;8.57;;;4.88;;
12210;SDS011;6168;42.658;23.298;2022-09-09T11:41:11;10.23;;;5.43;;
12210;SDS011;6168;42.658;23.298;2022-09-09T11:43:40;7.28;;;4.63;;
12210;SDS011;6168;42.658;23.298;2022-09-09T11:46:09;7.32;;;5.32;;
12210;SDS011;6168;42.658;23.298;2022-09-09T11:48:38;5.65;;;4.97;;
12210;SDS011;6168;42.658;23.298;2022-09-09T11:51:10;7.93;;;5.05;;
12210;SDS011;6168;42.658;23.298;2022-09-09T11:53:48;13.75;;;5.38;;
12210;SDS011;6168;42.658;23.298;2022-09-09T11:56:23;5.53;;;5.03;;
12210;SDS011;6168;42.658;23.298;2022-09-09T11:58:56;7.97;;;5.15;;
12210;SDS011;6168;42.658;23.298;2022-09-09T12:01:38;7.20;;;5.00;;
12210;SDS011;6168;42.658;23.298;2022-09-09T12:04:18;12.93;;;5.80;;
12210;SDS011;6168;42.658;23.298;2022-09-09T12:06:58;5.68;;;5.05;;
12210;SDS011;6168;42.658;23.298;2022-09-09T12:09:29;8.68;;;5.78;;
12210;SDS011;6168;42.658;23.298;2022-09-09T12:12:06;6.07;;;5.40;;
12210;SDS011;6168;42.658;23.298;2022-09-09T12:14:54;8.38;;;5.35;;
12210;SDS011;6168;42.658;23.298;2022-09-09T12:17:25;6.15;;;5.53;;
12210;SDS011;6168;42.658;23.298;2022-09-09T12:20:00;11.88;;;5.28;;
12210;SDS011;6168;42.658;23.298;2022-09-09T12:22:34;7.40;;;5.03;;
12210;SDS011;6168;42.658;23.298;2022-09-09T12:25:08;9.13;;;5.88;;
12210;SDS011;6168;42.658;23.298;2022-09-09T12:27:48;9.90;;;5.13;;
12210;SDS011;6168;42.658;23.298;2022-09-09T12:30:27;6.07;;;4.70;;
12210;SDS011;6168;42.658;23.298;2022-09-09T12:33:01;6.50;;;5.20;;
12210;SDS011;6168;42.658;23.298;2022-09-09T12:35:29;5.45;;;4.57;;
12210;SDS011;6168;42.658;23.298;2022-09-09T12:37:59;7.45;;;5.57;;
12210;SDS011;6168;42.658;23.298;2022-09-09T12:40:29;8.90;;;5.47;;
12210;SDS011;6168;42.658;23.298;2022-09-09T12:42:57;7.22;;;4.38;;
12210;SDS011;6168;42.658;23.298;2022-09-09T12:45:26;8.75;;;4.70;;
12210;SDS011;6168;42.658;23.298;2022-09-09T12:47:57;5.85;;;5.10;;
12210;SDS011;6168;42.658;23.298;2022-09-09T12:50:27;7.70;;;5.53;;
12210;SDS011;6168;42.658;23.298;2022-09-09T12:52:57;8.20;;;4.63;;
12210;SDS011;6168;42.658;23.298;2022-09-09T12:55:28;5.40;;;4.57;;
12210;SDS011;6168;42.658;23.298;2022-09-09T12:57:58;8.90;;;5.00;;
12210;SDS011;6168;42.658;23.298;2022-09-09T13:00:29;8.95;;;5.30;;
12210;SDS011;6168;42.658;23.298;2022-09-09T13:02:57;14.13;;;5.68;;
12210;SDS011;6168;42.658;23.298;2022-09-09T13:05:26;7.32;;;5.47;;
12210;SDS011;6168;42.658;23.298;2022-09-09T13:08:01;10.35;;;5.57;;
12210;SDS011;6168;42.658;23.298;2022-09-09T13:10:30;9.48;;;5.40;;
12210;SDS011;6168;42.658;23.298;2022-09-09T13:13:00;13.13;;;5.47;;
12210;SDS011;6168;42.658;23.298;2022-09-09T13:15:28;6.13;;;5.30;;
12210;SDS011;6168;42.658;23.298;2022-09-09T13:17:57;10.32;;;5.25;;
12210;SDS011;6168;42.658;23.298;2022-09-09T13:20:26;8.52;;;5.72;;
12210;SDS011;6168;42.658;23.298;2022-09-09T13:22:54;11.55;;;5.18;;
12210;SDS011;6168;42.658;23.298;2022-09-09T13:25:24;7.82;;;5.00;;
12210;SDS011;6168;42.658;23.298;2022-09-09T13:27:54;9.15;;;5.40;;
12210;SDS011;6168;42.658;23.298;2022-09-09T13:30:24;11.15;;;5.75;;
12210;SDS011;6168;42.658;23.298;2022-09-09T13:33:00;12.82;;;5.13;;
12210;SDS011;6168;42.658;23.298;2022-09-09T13:35:45;5.50;;;4.80;;
12210;SDS011;6168;42.658;23.298;2022-09-09T13:38:15;6.45;;;5.38;;
12210;SDS011;6168;42.658;23.298;2022-09-09T13:40:52;6.85;;;5.20;;
12210;SDS011;6168;42.658;23.298;2022-09-09T13:43:23;6.25;;;5.05;;
12210;SDS011;6168;42.658;23.298;2022-09-09T13:45:55;9.07;;;4.93;;
12210;SDS011;6168;42.658;23.298;2022-09-09T13:48:23;8.13;;;4.72;;
12210;SDS011;6168;42.658;23.298;2022-09-09T13:50:54;6.57;;;5.05;;
12210;SDS011;6168;42.658;23.298;2022-09-09T13:53:22;10.73;;;5.20;;
12210;SDS011;6168;42.658;23.298;2022-09-09T13:55:49;9.55;;;5.05;;
12210;SDS011;6168;42.658;23.298;2022-09-09T13:58:18;7.65;;;5.28;;
12210;SDS011;6168;42.658;23.298;2022-09-09T14:00:45;7.97;;;5.57;;
12210;SDS011;6168;42.658;23.298;2022-09-09T14:03:12;9.05;;;5.00;;
12210;SDS011;6168;42.658;23.298;2022-09-09T14:05:39;5.75;;;5.15;;
12210;SDS011;6168;42.658;23.298;2022-09-09T14:08:07;5.70;;;4.18;;
12210;SDS011;6168;42.658;23.298;2022-09-09T14:10:51;4.47;;;3.78;;
12210;SDS011;6168;42.658;23.298;2022-09-09T14:13:22;8.90;;;4.53;;
12210;SDS011;6168;42.658;23.298;2022-09-09T14:15:48;9.02;;;4.65;;
12210;SDS011;6168;42.658;23.298;2022-09-09T14:18:16;11.75;;;5.30;;
12210;SDS011;6168;42.658;23.298;2022-09-09T14:20:43;9.23;;;5.50;;
12210;SDS011;6168;42.658;23.298;2022-09-09T14:23:10;9.10;;;5.45;;
12210;SDS011;6168;42.658;23.298;2022-09-09T14:25:39;5.82;;;4.72;;
12210;SDS011;6168;42.658;23.298;2022-09-09T14:28:08;9.02;;;5.03;;
12210;SDS011;6168;42.658;23.298;2022-09-09T14:30:38;9.27;;;5.20;;
12210;SDS011;6168;42.658;23.298;2022-09-09T14:33:06;5.82;;;5.20;;
12210;SDS011;6168;42.658;23.298;2022-09-09T14:35:33;12.18;;;5.32;;
12210;SDS011;6168;42.658;23.298;2022-09-09T14:38:01;8.65;;;5.70;;
12210;SDS011;6168;42.658;23.298;2022-09-09T14:40:29;11.80;;;5.70;;
12210;SDS011;6168;42.658;23.298;2022-09-09T14:42:56;5.45;;;4.32;;
12210;SDS011;6168;42.658;23.298;2022-09-09T14:45:23;9.68;;;5.38;;
12210;SDS011;6168;42.658;23.298;2022-09-09T14:47:52;5.88;;;5.35;;
12210;SDS011;6168;42.658;23.298;2022-09-09T14:50:19;10.93;;;4.80;;
12210;SDS011;6168;42.658;23.298;2022-09-09T14:52:47;6.80;;;4.88;;
12210;SDS011;6168;42.658;23.298;2022-09-09T14:55:14;8.38;;;5.65;;
12210;SDS011;6168;42.658;23.298;2022-09-09T14:57:41;7.88;;;4.72;;
12210;SDS011;6168;42.658;23.298;2022-09-09T15:00:09;8.00;;;5.32;;
12210;SDS011;6168;42.658;23.298;2022-09-09T15:02:36;7.85;;;5.00;;
12210;SDS011;6168;42.658;23.298;2022-09-09T15:05:05;8.18;;;4.78;;
12210;SDS011;6168;42.658;23.298;2022-09-09T15:07:32;5.43;;;4.85;;
12210;SDS011;6168;42.658;23.298;2022-09-09T15:09:59;10.50;;;4.60;;
12210;SDS011;6168;42.658;23.298;2022-09-09T15:12:26;6.13;;;5.03;;
12210;SDS011;6168;42.658;23.298;2022-09-09T15:14:54;11.65;;;4.20;;
12210;SDS011;6168;42.658;23.298;2022-09-09T15:17:21;13.18;;;5.40;;
12210;SDS011;6168;42.658;23.298;2022-09-09T15:19:49;11.00;;;4.82;;
12210;SDS011;6168;42.658;23.298;2022-09-09T15:22:18;15.13;;;6.32;;
12210;SDS011;6168;42.658;23.298;2022-09-09T15:24:45;13.35;;;5.30;;
12210;SDS011;6168;42.658;23.298;2022-09-09T15:27:12;13.75;;;5.53;;
12210;SDS011;6168;42.658;23.298;2022-09-09T15:29:39;15.98;;;6.07;;
12210;SDS011;6168;42.658;23.298;2022-09-09T15:32:06;7.07;;;5.00;;
12210;SDS011;6168;42.658;23.298;2022-09-09T15:34:34;11.65;;;6.43;;
12210;SDS011;6168;42.658;23.298;2022-09-09T15:37:00;19.08;;;5.55;;
12210;SDS011;6168;42.658;23.298;2022-09-09T15:39:29;6.10;;;5.40;;
